createdAt,value
2022-07-29T00:00:02.772Z,63.4
2022-07-29T00:03:02.884Z,63.4
2022-07-29T00:06:03.276Z,63.8
2022-07-29T00:09:02.813Z,63.8
2022-07-29T00:12:02.764Z,63.8
2022-07-29T00:15:02.761Z,63.8
2022-07-29T00:18:02.789Z,63.8
2022-07-29T00:21:02.792Z,63.8
2022-07-29T00:24:02.863Z,63.8
2022-07-29T00:27:02.741Z,65.1
2022-07-29T00:30:02.844Z,65.1
2022-07-29T00:33:04.182Z,65.1
2022-07-29T00:36:02.759Z,65.1
2022-07-29T00:39:02.810Z,65.1
2022-07-29T00:42:02.754Z,65.1
2022-07-29T00:45:02.795Z,65.1
2022-07-29T00:48:02.778Z,65.6
2022-07-29T00:51:02.779Z,65.6
2022-07-29T00:54:02.829Z,65.6
2022-07-29T00:57:02.824Z,65.6
2022-07-29T01:00:02.779Z,65.7
2022-07-29T01:03:04.505Z,65.7
2022-07-29T01:06:02.773Z,65.7
2022-07-29T01:09:02.742Z,65.7
2022-07-29T01:12:02.855Z,65.7
2022-07-29T01:15:02.769Z,65.7
2022-07-29T01:18:02.803Z,65.7
2022-07-29T01:21:02.769Z,65.7
2022-07-29T01:24:02.782Z,65.7
2022-07-29T01:27:02.798Z,65.7
2022-07-29T01:30:05.307Z,66.2
2022-07-29T01:33:02.799Z,66.2
2022-07-29T01:36:02.979Z,66.2
2022-07-29T01:39:02.729Z,66.2
2022-07-29T01:42:02.843Z,66.2
2022-07-29T01:45:02.880Z,66.2
2022-07-29T01:48:02.804Z,66.2
2022-07-29T01:51:02.776Z,66.3
2022-07-29T01:54:02.806Z,66.3
2022-07-29T01:57:02.852Z,66.3
2022-07-29T02:00:02.867Z,66.3
2022-07-29T02:03:02.793Z,66.3
2022-07-29T02:06:02.784Z,66.3
2022-07-29T02:09:02.862Z,66.3
2022-07-29T02:12:02.876Z,66.3
2022-07-29T02:15:02.864Z,66.3
2022-07-29T02:18:02.854Z,66.3
2022-07-29T02:21:02.853Z,66.3
2022-07-29T02:24:02.775Z,66.4
2022-07-29T02:27:02.736Z,66.4
2022-07-29T02:30:02.798Z,66.4
2022-07-29T02:33:02.826Z,66.4
2022-07-29T02:36:02.787Z,66.4
2022-07-29T02:39:02.730Z,66.4
2022-07-29T02:42:02.798Z,66.4
2022-07-29T02:45:02.816Z,66.4
2022-07-29T02:48:02.780Z,66.7
2022-07-29T02:51:02.823Z,66.7
2022-07-29T02:54:02.809Z,66.7
2022-07-29T02:57:02.737Z,66.7
2022-07-29T03:00:02.806Z,66.7
2022-07-29T03:03:02.740Z,66.7
2022-07-29T03:06:02.850Z,66.7
2022-07-29T03:09:02.754Z,66.7
2022-07-29T03:12:02.817Z,66.7
2022-07-29T03:15:02.841Z,66.7
2022-07-29T03:18:02.805Z,66.7
2022-07-29T03:21:02.740Z,66.7
2022-07-29T03:24:04.492Z,66.7
2022-07-29T03:27:02.780Z,66.7
2022-07-29T03:30:02.903Z,66.7
2022-07-29T03:33:02.741Z,66.7
2022-07-29T03:36:02.828Z,66.7
2022-07-29T03:39:02.894Z,67.1
2022-07-29T03:42:02.849Z,67.1
2022-07-29T03:45:02.801Z,67.1
2022-07-29T03:48:03.622Z,67.1
2022-07-29T03:51:02.780Z,67.1
2022-07-29T03:54:09.461Z,67.1
2022-07-29T03:57:02.810Z,67.1
2022-07-29T04:00:02.947Z,67.1
2022-07-29T04:03:03.031Z,67.1
2022-07-29T04:06:02.833Z,67.1
2022-07-29T04:09:02.851Z,67.1
2022-07-29T04:12:06.734Z,67.1
2022-07-29T04:15:02.803Z,67.1
2022-07-29T04:18:03.033Z,67.1
2022-07-29T04:21:02.840Z,67.1
2022-07-29T04:24:02.893Z,67.1
2022-07-29T04:27:02.858Z,67.1
2022-07-29T04:30:02.839Z,67.1
2022-07-29T04:33:02.818Z,67.4
2022-07-29T04:36:03.250Z,67.4
2022-07-29T04:39:02.795Z,67.4
2022-07-29T04:42:03.397Z,67.4
2022-07-29T04:45:03.721Z,67.4
2022-07-29T04:48:02.796Z,67.4
2022-07-29T04:51:03.072Z,67.4
2022-07-29T04:54:02.859Z,67.4
2022-07-29T04:57:02.864Z,67.4
2022-07-29T05:00:02.821Z,67.4
2022-07-29T05:03:03.301Z,67.4
2022-07-29T05:06:02.798Z,67.4
2022-07-29T05:09:02.844Z,66.8
2022-07-29T05:12:02.813Z,66.8
2022-07-29T05:15:02.865Z,66.8
2022-07-29T05:18:02.801Z,66.8
2022-07-29T05:21:02.827Z,66.8
2022-07-29T05:24:02.806Z,66.8
2022-07-29T05:27:02.890Z,66.8
2022-07-29T05:30:03.037Z,66.2
2022-07-29T05:33:02.778Z,66.2
2022-07-29T05:36:03.504Z,65.8
2022-07-29T05:39:02.791Z,65.8
2022-07-29T05:42:02.818Z,65.8
2022-07-29T05:45:02.789Z,65.8
2022-07-29T05:48:02.823Z,65.8
2022-07-29T05:51:02.773Z,65.8
2022-07-29T05:54:02.818Z,65.8
2022-07-29T05:57:02.805Z,63.9
2022-07-29T06:00:02.899Z,63.9
2022-07-29T06:03:02.811Z,63.9
2022-07-29T06:06:02.794Z,63.9
2022-07-29T06:09:14.457Z,63.9
2022-07-29T06:12:02.796Z,63.9
2022-07-29T06:15:03.500Z,63.9
2022-07-29T06:18:04.581Z,63.9
2022-07-29T06:21:02.808Z,63.9
2022-07-29T06:24:03.037Z,63.9
2022-07-29T06:27:02.825Z,63.5
2022-07-29T06:30:02.941Z,63.5
2022-07-29T06:33:02.824Z,63.5
2022-07-29T06:36:02.836Z,63.5
2022-07-29T06:39:04.913Z,62.9
2022-07-29T06:42:02.830Z,62.9
2022-07-29T06:45:09.257Z,62.9
2022-07-29T06:48:02.781Z,62.9
2022-07-29T06:51:02.802Z,62.9
2022-07-29T06:54:15.194Z,62.9
2022-07-29T06:57:02.810Z,61.4
2022-07-29T07:00:02.863Z,61.4
2022-07-29T07:03:02.795Z,61.4
2022-07-29T07:06:02.834Z,61.4
2022-07-29T07:09:02.818Z,60.1
2022-07-29T07:12:02.847Z,60.1
2022-07-29T07:15:02.832Z,60.1
2022-07-29T07:18:02.882Z,58.3
2022-07-29T07:21:02.852Z,58.4
2022-07-29T07:24:02.850Z,58.4
2022-07-29T07:27:02.818Z,58.4
2022-07-29T07:30:02.877Z,57.5
2022-07-29T07:33:03.030Z,57.5
2022-07-29T07:36:02.816Z,57.5
2022-07-29T07:39:02.910Z,56.4
2022-07-29T07:42:02.826Z,56.4
2022-07-29T07:45:17.998Z,56.4
2022-07-29T07:48:02.814Z,56.4
2022-07-29T07:51:02.877Z,55.2
2022-07-29T07:54:04.879Z,55.2
2022-07-29T07:57:02.817Z,55.2
2022-07-29T08:00:02.786Z,55.2
2022-07-29T08:03:02.972Z,55.2
2022-07-29T08:06:02.793Z,53.9
2022-07-29T08:09:31.970Z,53.9
2022-07-29T08:12:02.839Z,53.9
2022-07-29T08:15:02.899Z,53.4
2022-07-29T08:18:10.860Z,53.2
2022-07-29T08:21:02.771Z,53.2
2022-07-29T08:24:09.419Z,53.2
2022-07-29T08:27:02.768Z,53.2
2022-07-29T08:30:02.845Z,53.2
2022-07-29T08:33:03.199Z,53.2
2022-07-29T08:36:02.795Z,53.2
2022-07-29T08:39:02.812Z,53.2
2022-07-29T08:42:03.405Z,53.2
2022-07-29T08:45:02.863Z,53.2
2022-07-29T08:48:02.880Z,53.2
2022-07-29T08:51:04.592Z,53.2
2022-07-29T08:54:02.829Z,53.2
2022-07-29T08:57:03.076Z,53.2
2022-07-29T09:00:13.555Z,52.3
2022-07-29T09:03:02.841Z,52.3
2022-07-29T09:06:02.799Z,52.3
2022-07-29T09:09:02.823Z,52.3
2022-07-29T09:12:02.756Z,50.5
2022-07-29T09:15:02.811Z,49.9
2022-07-29T09:18:02.831Z,49.9
2022-07-29T09:21:02.784Z,49.9
2022-07-29T09:24:02.747Z,51.1
2022-07-29T09:27:02.819Z,51.1
2022-07-29T09:30:02.835Z,51.1
2022-07-29T09:33:02.807Z,51.1
2022-07-29T09:36:04.105Z,51.1
2022-07-29T09:39:02.799Z,48.8
2022-07-29T09:42:02.771Z,48.8
2022-07-29T09:45:02.793Z,48.8
2022-07-29T09:48:02.767Z,48.8
2022-07-29T09:51:02.863Z,48.9
2022-07-29T09:54:02.786Z,48.9
2022-07-29T09:57:02.759Z,48.9
2022-07-29T10:00:02.902Z,48.9
2022-07-29T10:03:03.019Z,48.9
2022-07-29T10:06:02.807Z,48.9
2022-07-29T10:09:02.846Z,48.9
2022-07-29T10:12:03.450Z,48.9
2022-07-29T10:15:02.786Z,47
2022-07-29T10:18:02.816Z,47
2022-07-29T10:21:02.795Z,47
2022-07-29T10:24:03.897Z,47
2022-07-29T10:27:02.796Z,47
2022-07-29T10:30:02.867Z,47
2022-07-29T10:33:02.778Z,44.8
2022-07-29T10:36:02.796Z,44.8
2022-07-29T10:39:05.428Z,44.8
2022-07-29T10:42:05.671Z,44.8
2022-07-29T10:45:02.843Z,44.8
2022-07-29T10:48:02.783Z,44.8
2022-07-29T10:51:03.895Z,43
2022-07-29T10:54:03.227Z,43
2022-07-29T10:57:02.966Z,43
2022-07-29T11:00:02.902Z,43
2022-07-29T11:03:10.952Z,43
2022-07-29T11:06:02.803Z,43
2022-07-29T11:09:04.283Z,43
2022-07-29T11:12:05.150Z,43
2022-07-29T11:15:02.851Z,42.5
2022-07-29T11:18:02.816Z,42.5
2022-07-29T11:21:02.818Z,42.5
2022-07-29T11:24:02.775Z,42.5
2022-07-29T11:27:04.525Z,42.5
2022-07-29T11:30:05.519Z,42.5
2022-07-29T11:33:02.811Z,42.5
2022-07-29T11:36:05.625Z,42.5
2022-07-29T11:39:02.810Z,42.5
2022-07-29T11:42:15.933Z,42.5
2022-07-29T11:45:45.555Z,42.5
2022-07-29T11:48:34.830Z,42.5
2022-07-29T11:51:03.227Z,42.5
2022-07-29T11:54:07.456Z,42.5
2022-07-29T11:57:03.392Z,42.5
2022-07-29T12:03:03.053Z,42.5
2022-07-29T12:06:02.818Z,42.5
2022-07-29T12:09:02.855Z,43.2
2022-07-29T12:12:08.179Z,43.2
2022-07-29T12:15:04.164Z,43.2
2022-07-29T12:18:06.270Z,43.2
2022-07-29T12:21:06.141Z,43.2
2022-07-29T12:24:11.825Z,43.2
2022-07-29T12:27:02.886Z,43.2
2022-07-29T12:30:02.893Z,43.2
2022-07-29T12:33:02.822Z,41.5
2022-07-29T12:36:17.651Z,41.5
2022-07-29T12:39:02.873Z,41.5
2022-07-29T12:42:05.995Z,41.5
2022-07-29T12:45:02.810Z,41.5
2022-07-29T12:48:02.833Z,41.5
2022-07-29T12:51:02.806Z,41.5
2022-07-29T12:54:02.786Z,41.5
2022-07-29T12:57:02.847Z,41.5
2022-07-29T13:00:02.846Z,39.9
2022-07-29T13:03:02.974Z,39.9
2022-07-29T13:06:02.828Z,39.9
2022-07-29T13:09:02.901Z,39.9
2022-07-29T13:12:03.697Z,39.9
2022-07-29T13:15:02.841Z,39.9
2022-07-29T13:18:02.794Z,39.9
2022-07-29T13:21:02.817Z,39.9
2022-07-29T13:24:02.797Z,39.9
2022-07-29T13:27:05.567Z,39.9
2022-07-29T13:30:02.843Z,39.9
2022-07-29T13:33:02.799Z,39.9
2022-07-29T13:36:02.899Z,39.9
2022-07-29T13:39:02.834Z,39.9
2022-07-29T13:42:05.886Z,39.9
2022-07-29T13:45:02.837Z,39.9
2022-07-29T13:48:02.796Z,39.9
2022-07-29T13:51:02.780Z,39.9
2022-07-29T13:54:02.806Z,39.9
2022-07-29T13:57:02.833Z,38.9
2022-07-29T14:00:02.855Z,38.8
2022-07-29T14:03:02.857Z,38.8
2022-07-29T14:06:03.546Z,38.8
2022-07-29T14:09:02.839Z,38.8
2022-07-29T14:12:03.312Z,38.8
2022-07-29T14:15:02.912Z,38.8
2022-07-29T14:18:02.853Z,38.8
2022-07-29T14:21:02.881Z,38.8
2022-07-29T14:24:02.792Z,38.8
2022-07-29T14:27:03.475Z,38.8
2022-07-29T14:30:03.699Z,38.8
2022-07-29T14:33:02.809Z,38.8
2022-07-29T14:36:03.619Z,38.8
2022-07-29T14:39:02.871Z,38.8
2022-07-29T14:42:03.861Z,38.8
2022-07-29T14:45:02.874Z,38.8
2022-07-29T14:48:02.907Z,39.5
2022-07-29T14:51:07.293Z,40.1
2022-07-29T14:54:02.843Z,40.1
2022-07-29T14:57:02.824Z,40.1
2022-07-29T15:00:03.090Z,40.1
2022-07-29T15:03:05.273Z,40.1
2022-07-29T15:06:02.928Z,40.1
2022-07-29T15:09:02.789Z,40.1
2022-07-29T15:12:03.814Z,40.1
2022-07-29T15:15:03.469Z,40.1
2022-07-29T15:18:02.931Z,40.1
2022-07-29T15:21:02.831Z,40.1
2022-07-29T15:24:02.888Z,40.1
2022-07-29T15:27:02.915Z,40.1
2022-07-29T15:30:02.918Z,40.1
2022-07-29T15:33:02.915Z,40.1
2022-07-29T15:36:02.789Z,40.1
2022-07-29T15:39:03.001Z,40.1
2022-07-29T15:42:03.695Z,39.8
2022-07-29T15:45:02.878Z,39.8
2022-07-29T15:48:02.885Z,40.2
2022-07-29T15:51:02.903Z,40.2
2022-07-29T15:54:02.907Z,40.2
2022-07-29T15:57:03.438Z,40.2
2022-07-29T16:00:02.912Z,40.2
2022-07-29T16:03:02.830Z,40.2
2022-07-29T16:06:02.772Z,40.2
2022-07-29T16:09:02.826Z,40.2
2022-07-29T16:12:02.879Z,40.2
2022-07-29T16:15:11.895Z,40.2
2022-07-29T16:18:02.894Z,40.2
2022-07-29T16:21:02.813Z,40.2
2022-07-29T16:24:02.801Z,40.2
2022-07-29T16:27:03.812Z,39.6
2022-07-29T16:30:04.034Z,39.6
2022-07-29T16:33:09.985Z,39.6
2022-07-29T16:36:02.841Z,39.6
2022-07-29T16:39:02.835Z,40
2022-07-29T16:42:07.700Z,40
2022-07-29T16:45:04.920Z,40
2022-07-29T16:48:03.625Z,40
2022-07-29T16:51:02.978Z,40
2022-07-29T16:54:02.778Z,40
2022-07-29T16:57:04.280Z,40
2022-07-29T17:00:02.925Z,40.8
2022-07-29T17:03:02.785Z,40.8
2022-07-29T17:06:02.817Z,40.8
2022-07-29T17:09:02.958Z,40.8
2022-07-29T17:12:02.850Z,40.8
2022-07-29T17:15:02.788Z,40.8
2022-07-29T17:18:02.858Z,40.8
2022-07-29T17:21:02.839Z,40.8
2022-07-29T17:24:02.874Z,40.8
2022-07-29T17:27:03.391Z,40.8
2022-07-29T17:30:02.870Z,40.8
2022-07-29T17:33:02.817Z,40.8
2022-07-29T17:36:02.859Z,40.8
2022-07-29T17:39:02.793Z,40.8
2022-07-29T17:42:02.843Z,40.8
2022-07-29T17:45:02.810Z,40.8
2022-07-29T17:48:02.791Z,40.8
2022-07-29T17:51:02.882Z,40.8
2022-07-29T17:54:02.787Z,40.8
2022-07-29T17:57:03.618Z,40.8
2022-07-29T18:00:02.902Z,40.8
2022-07-29T18:03:03.030Z,43.5
2022-07-29T18:06:02.998Z,43.5
2022-07-29T18:09:02.798Z,43.5
2022-07-29T18:12:02.812Z,43.5
2022-07-29T18:15:02.888Z,43.5
2022-07-29T18:18:02.866Z,43.5
2022-07-29T18:21:02.811Z,43.5
2022-07-29T18:24:02.826Z,44.5
2022-07-29T18:27:03.613Z,44.5
2022-07-29T18:30:07.251Z,44.5
2022-07-29T18:33:24.504Z,44.5
2022-07-29T18:36:14.131Z,44.5
2022-07-29T18:39:02.873Z,45.4
2022-07-29T18:42:02.839Z,45.4
2022-07-29T18:45:08.257Z,45.4
2022-07-29T18:48:02.818Z,45.4
2022-07-29T18:51:02.877Z,45.4
2022-07-29T18:54:02.795Z,45.4
2022-07-29T18:57:58.503Z,45.4
2022-07-29T19:00:02.817Z,45.4
2022-07-29T19:03:04.165Z,45.4
2022-07-29T19:06:02.797Z,45.4
2022-07-29T19:09:02.840Z,45.4
2022-07-29T19:12:06.044Z,45.4
2022-07-29T19:15:02.854Z,45.4
2022-07-29T19:18:03.711Z,46.5
2022-07-29T19:21:02.848Z,46.5
2022-07-29T19:24:15.528Z,46.5
2022-07-29T19:27:03.292Z,47
2022-07-29T19:30:02.828Z,47
2022-07-29T19:33:02.840Z,47
2022-07-29T19:36:02.830Z,47
2022-07-29T19:39:02.900Z,47
2022-07-29T19:42:05.878Z,47
2022-07-29T19:45:02.784Z,47
2022-07-29T19:48:04.123Z,47
2022-07-29T19:51:02.779Z,47
2022-07-29T19:54:02.755Z,47
2022-07-29T19:57:06.145Z,47
2022-07-29T20:00:02.820Z,47
2022-07-29T20:03:02.904Z,47
2022-07-29T20:06:02.857Z,47
2022-07-29T20:09:02.761Z,47
2022-07-29T20:12:02.778Z,47
2022-07-29T20:15:02.791Z,47
2022-07-29T20:18:02.829Z,51.6
2022-07-29T20:21:02.806Z,51.6
2022-07-29T20:24:02.765Z,51.6
2022-07-29T20:27:03.687Z,51.6
2022-07-29T20:30:02.786Z,51.6
2022-07-29T20:33:02.791Z,51.6
2022-07-29T20:36:02.810Z,51.6
2022-07-29T20:39:02.917Z,51.6
2022-07-29T20:42:02.843Z,51.6
2022-07-29T20:45:10.699Z,51.6
2022-07-29T20:48:02.789Z,51.6
2022-07-29T20:51:02.850Z,51.6
2022-07-29T20:54:02.763Z,51.6
2022-07-29T20:57:03.696Z,51.6
2022-07-29T21:00:02.820Z,51.6
2022-07-29T21:03:02.953Z,51.6
2022-07-29T21:06:02.797Z,49.5
2022-07-29T21:09:02.801Z,49.8
2022-07-29T21:12:02.857Z,49.8
2022-07-29T21:15:02.835Z,49.8
2022-07-29T21:18:02.866Z,49.8
2022-07-29T21:21:02.766Z,49.8
2022-07-29T21:24:02.911Z,49.8
2022-07-29T21:27:23.930Z,49.8
2022-07-29T21:30:02.848Z,49.8
2022-07-29T21:33:02.966Z,49.8
2022-07-29T21:36:51.098Z,50.2
2022-07-29T21:39:02.868Z,50.2
2022-07-29T21:42:02.878Z,50.2
2022-07-29T21:45:02.877Z,50.2
2022-07-29T21:48:02.805Z,50.2
2022-07-29T21:51:02.741Z,50.2
2022-07-29T21:54:02.865Z,51.8
2022-07-29T21:57:03.630Z,51.7
2022-07-29T22:00:05.614Z,51.7
2022-07-29T22:03:02.921Z,51.7
2022-07-29T22:06:02.797Z,51.7
2022-07-29T22:09:02.844Z,52.2
2022-07-29T22:12:02.816Z,52.2
2022-07-29T22:15:02.956Z,52.2
2022-07-29T22:18:02.795Z,52.2
2022-07-29T22:21:02.831Z,52.2
2022-07-29T22:24:02.775Z,52.2
2022-07-29T22:27:03.697Z,54.6
2022-07-29T22:30:02.847Z,54.6
2022-07-29T22:33:02.841Z,54.6
2022-07-29T22:36:02.789Z,54.6
2022-07-29T22:39:02.864Z,54.6
2022-07-29T22:42:02.764Z,54.6
2022-07-29T22:45:02.773Z,54.6
2022-07-29T22:48:02.798Z,58.6
2022-07-29T22:51:02.816Z,58.6
2022-07-29T22:54:02.760Z,58.6
2022-07-29T22:57:03.635Z,58.6
2022-07-29T23:00:02.929Z,59.8
2022-07-29T23:03:02.837Z,59.8
2022-07-29T23:06:02.793Z,59.8
2022-07-29T23:09:02.786Z,59.8
2022-07-29T23:12:02.801Z,59.8
2022-07-29T23:15:02.842Z,61.2
2022-07-29T23:18:02.777Z,61.2
2022-07-29T23:21:02.812Z,61.2
2022-07-29T23:24:02.774Z,61.2
2022-07-29T23:27:03.641Z,61.2
2022-07-29T23:30:02.840Z,61.2
2022-07-29T23:33:02.811Z,61.2
2022-07-29T23:36:02.776Z,61.2
2022-07-29T23:39:02.864Z,62.6
2022-07-29T23:42:02.764Z,62.6
2022-07-29T23:45:02.787Z,62.6
2022-07-29T23:48:02.844Z,62.6
2022-07-29T23:51:02.822Z,62.6
2022-07-29T23:54:02.784Z,63.7
2022-07-29T23:57:03.745Z,63.7
